PWSweather.com
Personal Weather Stations
Station Observations
KNHRINDG3
Converse Meadow Pond, Rindge, NH 03461

Converse Meadow PondRindge, NH 03461

Lat: 42.74, Lon: -71.98

Elevation: 1060

Station Type: Davis Vantage Pro 2

http://nhwoodworker.com/weather/index.php

High Low Average
Temperature 86.3°F30.2°F 58.7°F14.8°F 72.8°F22.7°F
Dew Point 68.9°F20.5°F 57.9°F14.4°F 64.1°F17.8°F
Winds 4.6 mph SSW7.4 mph SSW Calm Calm 0.8 mph 1.3 mph
Wind Gusts 9.2 mph14.8 mph -- 2.3 mph3.7 mph
Humidity 99% 52% 76%
Pressure 29.83 in1010.20 in 29.70 in1005.80 in -
Precipitation 0.00 in0.00 in - -
Hour Temp Dew Point Humidity Winds Wind Gusts Pressure Precip Precip Rate Daily Precip Total
12:00 AM 61.3°F16.3°C 59.0°F15.0°C 92% Calm Calm -- 29.83 in1010.2 mb - 0.00 in0.0 mm 0.00 in0.0 mm
12:10 AM 61.2°F16.2°C 58.9°F14.9°C 92% Calm Calm -- 29.83 in1010.2 mb - 0.00 in0.0 mm 0.00 in0.0 mm
12:20 AM 61.1°F16.2°C 58.8°F14.9°C 92% Calm Calm -- 29.82 in1009.8 mb - 0.00 in0.0 mm 0.00 in0.0 mm
12:30 AM 61.0°F16.1°C 58.7°F14.8°C 92% Calm Calm -- 29.82 in1009.8 mb - 0.00 in0.0 mm 0.00 in0.0 mm
12:40 AM 60.9°F16.1°C 58.6°F14.8°C 92% Calm Calm -- 29.82 in1009.8 mb - 0.00 in0.0 mm 0.00 in0.0 mm
12:50 AM 60.8°F16.0°C 58.8°F14.9°C 93% Calm Calm -- 29.82 in1009.8 mb - 0.00 in0.0 mm 0.00 in0.0 mm
01:00 AM 61.0°F16.1°C 59.0°F15.0°C 93% Calm Calm -- 29.82 in1009.8 mb - 0.00 in0.0 mm 0.00 in0.0 mm
01:10 AM 60.9°F16.1°C 58.9°F14.9°C 93% Calm Calm -- 29.82 in1009.8 mb - 0.00 in0.0 mm 0.00 in0.0 mm
01:20 AM 60.7°F15.9°C 58.6°F14.8°C 93% Calm Calm -- 29.82 in1009.8 mb - 0.00 in0.0 mm 0.00 in0.0 mm
01:30 AM 60.4°F15.8°C 58.7°F14.8°C 94% Calm Calm -- 29.83 in1010.2 mb - 0.00 in0.0 mm 0.00 in0.0 mm
01:40 AM 60.2°F15.7°C 58.5°F14.7°C 94% Calm Calm -- 29.82 in1009.8 mb - 0.00 in0.0 mm 0.00 in0.0 mm
01:50 AM 60.1°F15.6°C 58.7°F14.8°C 95% Calm Calm -- 29.81 in1009.5 mb - 0.00 in0.0 mm 0.00 in0.0 mm
02:00 AM 59.9°F15.5°C 58.5°F14.7°C 95% Calm Calm -- 29.81 in1009.5 mb - 0.00 in0.0 mm 0.00 in0.0 mm
02:10 AM 59.7°F15.4°C 58.3°F14.6°C 95% Calm Calm -- 29.81 in1009.5 mb - 0.00 in0.0 mm 0.00 in0.0 mm
02:20 AM 59.6°F15.3°C 58.2°F14.6°C 95% Calm Calm -- 29.81 in1009.5 mb - 0.00 in0.0 mm 0.00 in0.0 mm
02:30 AM 59.6°F15.3°C 58.1°F14.5°C 95% Calm Calm -- 29.80 in1009.1 mb - 0.00 in0.0 mm 0.00 in0.0 mm
02:40 AM 59.6°F15.3°C 58.5°F14.7°C 96% Calm Calm -- 29.80 in1009.1 mb - 0.00 in0.0 mm 0.00 in0.0 mm
02:50 AM 59.7°F15.4°C 58.6°F14.8°C 96% Calm Calm -- 29.80 in1009.1 mb - 0.00 in0.0 mm 0.00 in0.0 mm
03:00 AM 59.7°F15.4°C 58.6°F14.8°C 96% Calm Calm -- 29.80 in1009.1 mb - 0.00 in0.0 mm 0.00 in0.0 mm
03:10 AM 59.8°F15.4°C 58.7°F14.8°C 96% Calm Calm -- 29.80 in1009.1 mb - 0.00 in0.0 mm 0.00 in0.0 mm
03:20 AM 59.8°F15.4°C 58.9°F14.9°C 97% Calm Calm -- 29.80 in1009.1 mb - 0.00 in0.0 mm 0.00 in0.0 mm
03:30 AM 59.8°F15.4°C 58.7°F14.8°C 96% Calm Calm -- 29.80 in1009.1 mb - 0.00 in0.0 mm 0.00 in0.0 mm
03:40 AM 59.7°F15.4°C 58.8°F14.9°C 97% Calm Calm -- 29.79 in1008.8 mb - 0.00 in0.0 mm 0.00 in0.0 mm
03:50 AM 59.7°F15.4°C 58.8°F14.9°C 97% Calm Calm -- 29.79 in1008.8 mb - 0.00 in0.0 mm 0.00 in0.0 mm
04:00 AM 59.7°F15.4°C 58.8°F14.9°C 97% Calm Calm -- 29.79 in1008.8 mb - 0.00 in0.0 mm 0.00 in0.0 mm
04:10 AM 59.6°F15.3°C 58.7°F14.8°C 97% Calm Calm -- 29.79 in1008.8 mb - 0.00 in0.0 mm 0.00 in0.0 mm
04:20 AM 59.6°F15.3°C 58.7°F14.8°C 97% Calm Calm -- 29.79 in1008.8 mb - 0.00 in0.0 mm 0.00 in0.0 mm
04:30 AM 59.4°F15.2°C 58.5°F14.7°C 97% Calm Calm -- 29.79 in1008.8 mb - 0.00 in0.0 mm 0.00 in0.0 mm
04:40 AM 59.2°F15.1°C 58.4°F14.7°C 97% Calm Calm -- 29.79 in1008.8 mb - 0.00 in0.0 mm 0.00 in0.0 mm
04:50 AM 59.0°F15.0°C 58.1°F14.5°C 97% Calm Calm -- 29.79 in1008.8 mb - 0.00 in0.0 mm 0.00 in0.0 mm
05:00 AM 58.8°F14.9°C 58.0°F14.4°C 97% Calm Calm -- 29.79 in1008.8 mb - 0.00 in0.0 mm 0.00 in0.0 mm
05:10 AM 58.7°F14.8°C 57.9°F14.4°C 97% Calm Calm -- 29.79 in1008.8 mb - 0.00 in0.0 mm 0.00 in0.0 mm
05:20 AM 58.9°F14.9°C 58.1°F14.5°C 97% Calm Calm -- 29.80 in1009.1 mb - 0.00 in0.0 mm 0.00 in0.0 mm
05:30 AM 59.0°F15.0°C 58.4°F14.7°C 98% Calm Calm -- 29.80 in1009.1 mb - 0.00 in0.0 mm 0.00 in0.0 mm
05:40 AM 59.1°F15.1°C 58.5°F14.7°C 98% Calm Calm -- 29.80 in1009.1 mb - 0.00 in0.0 mm 0.00 in0.0 mm
05:50 AM 59.6°F15.3°C 59.0°F15.0°C 98% Calm Calm -- 29.80 in1009.1 mb - 0.00 in0.0 mm 0.00 in0.0 mm
06:00 AM 60.0°F15.6°C 59.4°F15.2°C 98% Calm Calm -- 29.80 in1009.1 mb - 0.00 in0.0 mm 0.00 in0.0 mm
06:10 AM 60.2°F15.7°C 59.6°F15.3°C 98% Calm Calm -- 29.80 in1009.1 mb - 0.00 in0.0 mm 0.00 in0.0 mm
06:20 AM 60.3°F15.7°C 59.7°F15.4°C 98% Calm Calm -- 29.80 in1009.1 mb - 0.00 in0.0 mm 0.00 in0.0 mm
06:30 AM 60.9°F16.1°C 60.3°F15.7°C 98% Calm Calm -- 29.80 in1009.1 mb - 0.00 in0.0 mm 0.00 in0.0 mm
06:40 AM 62.3°F16.8°C 62.0°F16.7°C 99% Calm Calm 1.2 mph1.9 kmh 29.80 in1009.1 mb - 0.00 in0.0 mm 0.00 in0.0 mm
06:50 AM 62.8°F17.1°C 62.5°F16.9°C 99% Calm Calm -- 29.81 in1009.5 mb - 0.00 in0.0 mm 0.00 in0.0 mm
07:00 AM 62.8°F17.1°C 62.5°F16.9°C 99% Calm Calm 2.3 mph3.7 kmh 29.80 in1009.1 mb - 0.00 in0.0 mm 0.00 in0.0 mm
07:10 AM 64.1°F17.8°C 63.8°F17.7°C 99% Calm Calm -- 29.81 in1009.5 mb - 0.00 in0.0 mm 0.00 in0.0 mm
07:20 AM 64.6°F18.1°C 64.3°F17.9°C 99% Calm Calm -- 29.80 in1009.1 mb - 0.00 in0.0 mm 0.00 in0.0 mm
07:30 AM 64.9°F18.3°C 64.6°F18.1°C 99% Calm Calm -- 29.80 in1009.1 mb - 0.00 in0.0 mm 0.00 in0.0 mm
07:40 AM 65.5°F18.6°C 65.2°F18.4°C 99% 1.2 mph S1.9 kmh S 3.5 mph5.6 kmh 29.80 in1009.1 mb - 0.00 in0.0 mm 0.00 in0.0 mm
07:50 AM 66.0°F18.9°C 65.1°F18.4°C 97% Calm Calm 1.2 mph1.9 kmh 29.80 in1009.1 mb - 0.00 in0.0 mm 0.00 in0.0 mm
08:00 AM 66.7°F19.3°C 65.2°F18.4°C 95% 1.2 mph WNW1.9 kmh WNW 1.2 mph1.9 kmh 29.80 in1009.1 mb - 0.00 in0.0 mm 0.00 in0.0 mm
08:10 AM 67.6°F19.8°C 65.2°F18.4°C 92% 1.2 mph WSW1.9 kmh WSW 4.6 mph7.4 kmh 29.80 in1009.1 mb - 0.00 in0.0 mm 0.00 in0.0 mm
08:20 AM 68.7°F20.4°C 65.3°F18.5°C 89% Calm Calm 8.1 mph13.0 kmh 29.80 in1009.1 mb - 0.00 in0.0 mm 0.00 in0.0 mm
08:30 AM 69.7°F20.9°C 65.6°F18.7°C 87% Calm Calm 2.3 mph3.7 kmh 29.80 in1009.1 mb - 0.00 in0.0 mm 0.00 in0.0 mm
08:40 AM 70.4°F21.3°C 65.7°F18.7°C 85% 1.2 mph WSW1.9 kmh WSW 3.5 mph5.6 kmh 29.79 in1008.8 mb - 0.00 in0.0 mm 0.00 in0.0 mm
08:50 AM 71.5°F21.9°C 66.0°F18.9°C 83% 1.2 mph SW1.9 kmh SW 6.9 mph11.1 kmh 29.79 in1008.8 mb - 0.00 in0.0 mm 0.00 in0.0 mm
09:00 AM 72.4°F22.4°C 66.2°F19.0°C 81% 1.2 mph S1.9 kmh S 4.6 mph7.4 kmh 29.79 in1008.8 mb - 0.00 in0.0 mm 0.00 in0.0 mm
09:10 AM 73.3°F22.9°C 66.0°F18.9°C 78% 2.3 mph WSW3.7 kmh WSW 3.5 mph5.6 kmh 29.79 in1008.8 mb - 0.00 in0.0 mm 0.00 in0.0 mm
09:20 AM 74.1°F23.4°C 66.1°F18.9°C 76% Calm Calm 3.5 mph5.6 kmh 29.79 in1008.8 mb - 0.00 in0.0 mm 0.00 in0.0 mm
09:30 AM 75.0°F23.9°C 65.7°F18.7°C 73% 1.2 mph WSW1.9 kmh WSW 3.5 mph5.6 kmh 29.78 in1008.5 mb - 0.00 in0.0 mm 0.00 in0.0 mm
09:40 AM 75.6°F24.2°C 65.5°F18.6°C 71% 2.3 mph WSW3.7 kmh WSW 5.8 mph9.3 kmh 29.78 in1008.5 mb - 0.00 in0.0 mm 0.00 in0.0 mm
09:50 AM 76.5°F24.7°C 66.4°F19.1°C 71% 1.2 mph SSW1.9 kmh SSW 3.5 mph5.6 kmh 29.77 in1008.1 mb - 0.00 in0.0 mm 0.00 in0.0 mm
10:00 AM 77.3°F25.2°C 66.8°F19.3°C 70% 1.2 mph W1.9 kmh W 3.5 mph5.6 kmh 29.77 in1008.1 mb - 0.00 in0.0 mm 0.00 in0.0 mm
10:10 AM 78.1°F25.6°C 66.7°F19.3°C 68% 2.3 mph SSW3.7 kmh SSW 4.6 mph7.4 kmh 29.77 in1008.1 mb - 0.00 in0.0 mm 0.00 in0.0 mm
10:20 AM 78.4°F25.8°C 67.4°F19.7°C 69% 3.5 mph W5.6 kmh W 5.8 mph9.3 kmh 29.76 in1007.8 mb - 0.00 in0.0 mm 0.00 in0.0 mm
10:30 AM 79.5°F26.4°C 67.6°F19.8°C 67% 3.5 mph NW5.6 kmh NW 3.5 mph5.6 kmh 29.77 in1008.1 mb - 0.00 in0.0 mm 0.00 in0.0 mm
10:40 AM 80.1°F26.7°C 68.2°F20.1°C 67% 1.2 mph SE1.9 kmh SE 2.3 mph3.7 kmh 29.77 in1008.1 mb - 0.00 in0.0 mm 0.00 in0.0 mm
10:50 AM 80.2°F26.8°C 67.4°F19.7°C 65% 1.2 mph SW1.9 kmh SW 9.2 mph14.8 kmh 29.77 in1008.1 mb - 0.00 in0.0 mm 0.00 in0.0 mm
11:00 AM 80.6°F27.0°C 67.7°F19.8°C 65% 3.5 mph SW5.6 kmh SW 8.1 mph13.0 kmh 29.77 in1008.1 mb - 0.00 in0.0 mm 0.00 in0.0 mm
11:10 AM 81.0°F27.2°C 68.5°F20.3°C 66% 1.2 mph SW1.9 kmh SW 2.3 mph3.7 kmh 29.77 in1008.1 mb - 0.00 in0.0 mm 0.00 in0.0 mm
11:20 AM 81.5°F27.5°C 68.6°F20.3°C 65% 2.3 mph SSW3.7 kmh SSW 3.5 mph5.6 kmh 29.77 in1008.1 mb - 0.00 in0.0 mm 0.00 in0.0 mm
11:30 AM 81.7°F27.6°C 67.9°F19.9°C 63% 2.3 mph S3.7 kmh S 6.9 mph11.1 kmh 29.77 in1008.1 mb - 0.00 in0.0 mm 0.00 in0.0 mm
11:40 AM 82.3°F27.9°C 68.0°F20.0°C 62% 2.3 mph S3.7 kmh S 3.5 mph5.6 kmh 29.76 in1007.8 mb - 0.00 in0.0 mm 0.00 in0.0 mm
11:50 AM 82.7°F28.2°C 68.9°F20.5°C 63% 2.3 mph SSW3.7 kmh SSW 8.1 mph13.0 kmh 29.77 in1008.1 mb - 0.00 in0.0 mm 0.00 in0.0 mm
12:00 PM 82.9°F28.3°C 67.6°F19.8°C 60% 2.3 mph SSE3.7 kmh SSE 8.1 mph13.0 kmh 29.76 in1007.8 mb - 0.00 in0.0 mm 0.00 in0.0 mm
12:10 PM 83.2°F28.4°C 67.8°F19.9°C 60% 2.3 mph NE3.7 kmh NE 5.8 mph9.3 kmh 29.76 in1007.8 mb - 0.00 in0.0 mm 0.00 in0.0 mm
12:20 PM 83.3°F28.5°C 67.0°F19.4°C 58% 3.5 mph W5.6 kmh W 3.5 mph5.6 kmh 29.76 in1007.8 mb - 0.00 in0.0 mm 0.00 in0.0 mm
12:30 PM 83.4°F28.6°C 68.5°F20.3°C 61% 1.2 mph SW1.9 kmh SW 4.6 mph7.4 kmh 29.76 in1007.8 mb - 0.00 in0.0 mm 0.00 in0.0 mm
12:40 PM 83.7°F28.7°C 67.4°F19.7°C 58% 2.3 mph NW3.7 kmh NW 8.1 mph13.0 kmh 29.75 in1007.5 mb - 0.00 in0.0 mm 0.00 in0.0 mm
12:50 PM 83.9°F28.8°C 67.5°F19.7°C 58% 2.3 mph SE3.7 kmh SE 6.9 mph11.1 kmh 29.75 in1007.5 mb - 0.00 in0.0 mm 0.00 in0.0 mm
01:00 PM 83.9°F28.8°C 66.5°F19.2°C 56% 3.5 mph NW5.6 kmh NW 8.1 mph13.0 kmh 29.75 in1007.5 mb - 0.00 in0.0 mm 0.00 in0.0 mm
01:10 PM 83.9°F28.8°C 66.5°F19.2°C 56% 2.3 mph SW3.7 kmh SW 5.8 mph9.3 kmh 29.75 in1007.5 mb - 0.00 in0.0 mm 0.00 in0.0 mm
01:20 PM 84.0°F28.9°C 67.1°F19.5°C 57% 4.6 mph SSW7.4 kmh SSW 9.2 mph14.8 kmh 29.75 in1007.5 mb - 0.00 in0.0 mm 0.00 in0.0 mm
01:30 PM 84.0°F28.9°C 67.1°F19.5°C 57% 3.5 mph WSW5.6 kmh WSW 5.8 mph9.3 kmh 29.75 in1007.5 mb - 0.00 in0.0 mm 0.00 in0.0 mm
01:40 PM 84.5°F29.2°C 67.1°F19.5°C 56% 2.3 mph N3.7 kmh N 8.1 mph13.0 kmh 29.75 in1007.5 mb - 0.00 in0.0 mm 0.00 in0.0 mm
01:50 PM 84.8°F29.3°C 66.3°F19.1°C 54% 3.5 mph S5.6 kmh S 5.8 mph9.3 kmh 29.75 in1007.5 mb - 0.00 in0.0 mm 0.00 in0.0 mm
02:00 PM 84.4°F29.1°C 65.4°F18.6°C 53% 2.3 mph S3.7 kmh S 4.6 mph7.4 kmh 29.75 in1007.5 mb - 0.00 in0.0 mm 0.00 in0.0 mm
02:10 PM 84.9°F29.4°C 67.5°F19.7°C 56% 1.2 mph SE1.9 kmh SE 3.5 mph5.6 kmh 29.74 in1007.1 mb - 0.00 in0.0 mm 0.00 in0.0 mm
02:20 PM 85.7°F29.8°C 67.1°F19.5°C 54% 3.5 mph ESE5.6 kmh ESE 5.8 mph9.3 kmh 29.74 in1007.1 mb - 0.00 in0.0 mm 0.00 in0.0 mm
02:30 PM 85.7°F29.8°C 67.2°F19.6°C 54% 1.2 mph NW1.9 kmh NW 3.5 mph5.6 kmh 29.73 in1006.8 mb - 0.00 in0.0 mm 0.00 in0.0 mm
02:40 PM 86.0°F30.0°C 67.4°F19.7°C 54% 1.2 mph SW1.9 kmh SW 2.3 mph3.7 kmh 29.72 in1006.4 mb - 0.00 in0.0 mm 0.00 in0.0 mm
02:50 PM 86.0°F30.0°C 66.4°F19.1°C 52% Calm Calm 2.3 mph3.7 kmh 29.72 in1006.4 mb - 0.00 in0.0 mm 0.00 in0.0 mm
03:00 PM 85.9°F29.9°C 66.2°F19.0°C 52% 2.3 mph WSW3.7 kmh WSW 3.5 mph5.6 kmh 29.71 in1006.1 mb - 0.00 in0.0 mm 0.00 in0.0 mm
03:10 PM 86.3°F30.2°C 67.7°F19.8°C 54% Calm Calm 1.2 mph1.9 kmh 29.71 in1006.1 mb - 0.00 in0.0 mm 0.00 in0.0 mm
03:20 PM 86.1°F30.1°C 66.4°F19.1°C 52% 1.2 mph SSW1.9 kmh SSW 3.5 mph5.6 kmh 29.71 in1006.1 mb - 0.00 in0.0 mm 0.00 in0.0 mm
03:30 PM 86.2°F30.1°C 66.5°F19.2°C 52% 2.3 mph W3.7 kmh W 2.3 mph3.7 kmh 29.71 in1006.1 mb - 0.00 in0.0 mm 0.00 in0.0 mm
03:40 PM 86.0°F30.0°C 68.5°F20.3°C 56% 1.2 mph N1.9 kmh N 3.5 mph5.6 kmh 29.71 in1006.1 mb - 0.00 in0.0 mm 0.00 in0.0 mm
03:50 PM 85.4°F29.7°C 67.4°F19.7°C 55% 1.2 mph SW1.9 kmh SW 4.6 mph7.4 kmh 29.71 in1006.1 mb - 0.00 in0.0 mm 0.00 in0.0 mm
04:00 PM 84.8°F29.3°C 66.3°F19.1°C 54% Calm Calm 3.5 mph5.6 kmh 29.70 in1005.8 mb - 0.00 in0.0 mm 0.00 in0.0 mm
04:10 PM 85.0°F29.4°C 66.5°F19.2°C 54% 2.3 mph SW3.7 kmh SW 9.2 mph14.8 kmh 29.70 in1005.8 mb - 0.00 in0.0 mm 0.00 in0.0 mm
04:20 PM 84.8°F29.3°C 66.3°F19.1°C 54% 3.5 mph WSW5.6 kmh WSW 5.8 mph9.3 kmh 29.70 in1005.8 mb - 0.00 in0.0 mm 0.00 in0.0 mm
04:30 PM 83.9°F28.8°C 65.5°F18.6°C 54% Calm Calm 3.5 mph5.6 kmh 29.70 in1005.8 mb - 0.00 in0.0 mm 0.00 in0.0 mm
04:40 PM 83.1°F28.4°C 66.3°F19.1°C 57% Calm Calm 2.3 mph3.7 kmh 29.70 in1005.8 mb - 0.00 in0.0 mm 0.00 in0.0 mm
04:50 PM 83.0°F28.3°C 65.2°F18.4°C 55% 1.2 mph NW1.9 kmh NW 3.5 mph5.6 kmh 29.70 in1005.8 mb - 0.00 in0.0 mm 0.00 in0.0 mm
05:00 PM 82.2°F27.9°C 65.5°F18.6°C 57% 1.2 mph NE1.9 kmh NE 1.2 mph1.9 kmh 29.70 in1005.8 mb - 0.00 in0.0 mm 0.00 in0.0 mm
05:10 PM 81.9°F27.7°C 66.2°F19.0°C 59% 1.2 mph SE1.9 kmh SE 3.5 mph5.6 kmh 29.70 in1005.8 mb - 0.00 in0.0 mm 0.00 in0.0 mm
05:20 PM 81.7°F27.6°C 65.0°F18.3°C 57% 1.2 mph SW1.9 kmh SW 3.5 mph5.6 kmh 29.71 in1006.1 mb - 0.00 in0.0 mm 0.00 in0.0 mm
05:30 PM 81.2°F27.3°C 65.5°F18.6°C 59% 1.2 mph SW1.9 kmh SW 1.2 mph1.9 kmh 29.71 in1006.1 mb - 0.00 in0.0 mm 0.00 in0.0 mm
05:40 PM 80.9°F27.2°C 64.8°F18.2°C 58% 1.2 mph S1.9 kmh S 3.5 mph5.6 kmh 29.70 in1005.8 mb - 0.00 in0.0 mm 0.00 in0.0 mm
05:50 PM 81.6°F27.6°C 65.4°F18.6°C 58% 1.2 mph SW1.9 kmh SW 3.5 mph5.6 kmh 29.70 in1005.8 mb - 0.00 in0.0 mm 0.00 in0.0 mm
06:00 PM 82.0°F27.8°C 65.3°F18.5°C 57% Calm Calm 1.2 mph1.9 kmh 29.70 in1005.8 mb - 0.00 in0.0 mm 0.00 in0.0 mm
06:10 PM 81.2°F27.3°C 64.5°F18.1°C 57% 1.2 mph NW1.9 kmh NW 4.6 mph7.4 kmh 29.70 in1005.8 mb - 0.00 in0.0 mm 0.00 in0.0 mm
06:20 PM 80.1°F26.7°C 64.5°F18.1°C 59% 2.3 mph SW3.7 kmh SW 3.5 mph5.6 kmh 29.70 in1005.8 mb - 0.00 in0.0 mm 0.00 in0.0 mm
06:30 PM 79.7°F26.5°C 65.0°F18.3°C 61% 1.2 mph WSW1.9 kmh WSW 1.2 mph1.9 kmh 29.70 in1005.8 mb - 0.00 in0.0 mm 0.00 in0.0 mm
06:40 PM 79.5°F26.4°C 64.4°F18.0°C 60% 1.2 mph SSW1.9 kmh SSW 2.3 mph3.7 kmh 29.70 in1005.8 mb - 0.00 in0.0 mm 0.00 in0.0 mm
06:50 PM 79.3°F26.3°C 65.1°F18.4°C 62% Calm Calm -- 29.70 in1005.8 mb - 0.00 in0.0 mm 0.00 in0.0 mm
07:00 PM 78.9°F26.1°C 65.2°F18.4°C 63% Calm Calm -- 29.70 in1005.8 mb - 0.00 in0.0 mm 0.00 in0.0 mm
07:10 PM 78.5°F25.8°C 65.3°F18.5°C 64% Calm Calm 1.2 mph1.9 kmh 29.70 in1005.8 mb - 0.00 in0.0 mm 0.00 in0.0 mm
07:20 PM 78.2°F25.7°C 65.5°F18.6°C 65% Calm Calm 2.3 mph3.7 kmh 29.70 in1005.8 mb - 0.00 in0.0 mm 0.00 in0.0 mm
07:30 PM 77.9°F25.5°C 65.6°F18.7°C 66% Calm Calm -- 29.70 in1005.8 mb - 0.00 in0.0 mm 0.00 in0.0 mm
07:40 PM 77.5°F25.3°C 65.2°F18.4°C 66% Calm Calm -- 29.71 in1006.1 mb - 0.00 in0.0 mm 0.00 in0.0 mm
07:50 PM 77.1°F25.1°C 65.3°F18.5°C 67% Calm Calm 3.5 mph5.6 kmh 29.71 in1006.1 mb - 0.00 in0.0 mm 0.00 in0.0 mm
08:00 PM 76.6°F24.8°C 65.2°F18.4°C 68% Calm Calm 1.2 mph1.9 kmh 29.71 in1006.1 mb - 0.00 in0.0 mm 0.00 in0.0 mm
08:10 PM 76.3°F24.6°C 65.0°F18.3°C 68% 1.2 mph SW1.9 kmh SW 3.5 mph5.6 kmh 29.71 in1006.1 mb - 0.00 in0.0 mm 0.00 in0.0 mm
08:20 PM 76.1°F24.5°C 65.2°F18.4°C 69% 1.2 mph SW1.9 kmh SW 3.5 mph5.6 kmh 29.72 in1006.4 mb - 0.00 in0.0 mm 0.00 in0.0 mm
08:30 PM 75.9°F24.4°C 65.0°F18.3°C 69% 1.2 mph N1.9 kmh N 2.3 mph3.7 kmh 29.72 in1006.4 mb - 0.00 in0.0 mm 0.00 in0.0 mm
08:40 PM 75.7°F24.3°C 65.6°F18.7°C 71% Calm Calm -- 29.72 in1006.4 mb - 0.00 in0.0 mm 0.00 in0.0 mm
08:50 PM 75.6°F24.2°C 65.5°F18.6°C 71% Calm Calm 1.2 mph1.9 kmh 29.73 in1006.8 mb - 0.00 in0.0 mm 0.00 in0.0 mm
09:00 PM 75.3°F24.1°C 66.0°F18.9°C 73% Calm Calm 3.5 mph5.6 kmh 29.73 in1006.8 mb - 0.00 in0.0 mm 0.00 in0.0 mm
09:10 PM 75.0°F23.9°C 66.1°F18.9°C 74% Calm Calm -- 29.73 in1006.8 mb - 0.00 in0.0 mm 0.00 in0.0 mm
09:20 PM 74.7°F23.7°C 66.6°F19.2°C 76% Calm Calm 2.3 mph3.7 kmh 29.73 in1006.8 mb - 0.00 in0.0 mm 0.00 in0.0 mm
09:30 PM 74.4°F23.6°C 66.7°F19.3°C 77% Calm Calm 1.2 mph1.9 kmh 29.74 in1007.1 mb - 0.00 in0.0 mm 0.00 in0.0 mm
09:40 PM 74.2°F23.4°C 66.5°F19.2°C 77% Calm Calm 2.3 mph3.7 kmh 29.74 in1007.1 mb - 0.00 in0.0 mm 0.00 in0.0 mm
09:50 PM 73.8°F23.2°C 66.5°F19.2°C 78% Calm Calm -- 29.75 in1007.5 mb - 0.00 in0.0 mm 0.00 in0.0 mm
10:00 PM 73.5°F23.1°C 66.6°F19.2°C 79% Calm Calm 1.2 mph1.9 kmh 29.75 in1007.5 mb - 0.00 in0.0 mm 0.00 in0.0 mm
10:10 PM 73.2°F22.9°C 66.7°F19.3°C 80% Calm Calm -- 29.75 in1007.5 mb - 0.00 in0.0 mm 0.00 in0.0 mm
10:20 PM 73.0°F22.8°C 66.8°F19.3°C 81% Calm Calm 3.5 mph5.6 kmh 29.75 in1007.5 mb - 0.00 in0.0 mm 0.00 in0.0 mm
10:30 PM 72.7°F22.6°C 66.6°F19.2°C 81% Calm Calm -- 29.75 in1007.5 mb - 0.00 in0.0 mm 0.00 in0.0 mm
10:40 PM 72.4°F22.4°C 66.6°F19.2°C 82% Calm Calm -- 29.75 in1007.5 mb - 0.00 in0.0 mm 0.00 in0.0 mm
10:50 PM 72.1°F22.3°C 66.7°F19.3°C 83% Calm Calm -- 29.75 in1007.5 mb - 0.00 in0.0 mm 0.00 in0.0 mm
11:00 PM 71.9°F22.2°C 66.5°F19.2°C 83% Calm Calm -- 29.75 in1007.5 mb - 0.00 in0.0 mm 0.00 in0.0 mm
11:10 PM 71.6°F22.0°C 66.5°F19.2°C 84% Calm Calm 1.2 mph1.9 kmh 29.76 in1007.8 mb - 0.00 in0.0 mm 0.00 in0.0 mm
11:20 PM 71.4°F21.9°C 66.6°F19.2°C 85% 1.2 mph N1.9 kmh N 1.2 mph1.9 kmh 29.76 in1007.8 mb - 0.00 in0.0 mm 0.00 in0.0 mm
11:30 PM 71.3°F21.8°C 66.9°F19.4°C 86% Calm Calm -- 29.75 in1007.5 mb - 0.00 in0.0 mm 0.00 in0.0 mm
11:40 PM 71.2°F21.8°C 66.8°F19.3°C 86% Calm Calm -- 29.75 in1007.5 mb - 0.00 in0.0 mm 0.00 in0.0 mm
11:50 PM 70.9°F21.6°C 66.8°F19.3°C 87% Calm Calm -- 29.75 in1007.5 mb - 0.00 in0.0 mm 0.00 in0.0 mm